Terminal Aerodrome Forecast
Issued by NWS

Home | Current Version | Previous Version | Text Only | Print | Product List | Glossary On
Versions: 1 2 3 4 5 6 7 8 9 10 11 12 13 14 15 16 17 18 19 20 21 22
000
FTUS43 KMQT 162320
TAFSAW
TAF
KSAW 162320Z 1700/1724 10004KT P6SM BKN070
     FM170600 12005KT P6SM BKN020
     FM170700 13005KT P6SM BKN015
     FM170800 13006KT 6SM BR VCSH OVC015
     FM171000 13007KT 5SM -SHRA BR OVC008
     FM171300 13008KT 3SM -SHRA BR OVC003
     FM171500 14009KT 2SM BR VCSH OVC003
     FM171800 15008KT 3SM -SHRA BR OVC003
     FM172100 15007KT 4SM -SHRA BR OVC008=

USA.gov is the U.S. government's official web portal to all federal, state and local government web resources and services.